KCHD/CHD METAR and TAF weather

Enter ICAO airport designator
Station Type Date Time Source
KCHD METAR 2020/09/27 02:47 UTC NOAA

KCHD 270247Z 30005KT 10SM SKC 34/03 A2983


Station Type Date Time Source
KCHD Decoded METAR 2020/09/27 02:47 UTC NOAA

Chandler, Chandler Municipal Airport, AZ, United States (KCHD) 33-16-09N 111-48-40W
Sep 26, 2020 - 10:47 PM EDT / 2020.09.27 0247 UTC
Wind: from the WNW (300 degrees) at 6 MPH (5 KT):0
Visibility: 10 mile(s):0
Sky conditions: clear
Temperature: 93 F (34 C)
Dew Point: 37 F (3 C)
Relative Humidity: 14%
Pressure (altimeter): 29.83 in. Hg (1010 hPa)
ob: KCHD 270247Z 30005KT 10SM SKC 34/03 A2983
cycle: 3

Station Type Date Time Source
KCHD TAF UTC NOAA

Error!

Example: see airport list